Time;durP1;ratioP1;P1;durP2;ratioP2;P2;SDS_P1;SDS_P2;PMS_P1;PMS_P2;Temp;Humidity;BMP_temperature;BMP_pressure;BME280_temperature;BME280_humidity;BME280_pressure;Samples;Min_cycle;Max_cycle;Signal;HPM_P1;HPM_P2
2022/08/23 00:00:41;;;;;;;11.93;6.67;;;;;;;;;;782265;180;625720;-86
2022/08/23 00:03:07;;;;;;;10.43;5.70;;;;;;;;;;780310;179;643285;-86
2022/08/23 00:05:33;;;;;;;10.97;6.30;;;;;;;;;;779996;179;669893;-87
2022/08/23 00:07:59;;;;;;;12.27;6.43;;;;;;;;;;772754;179;613638;-87
2022/08/23 00:10:25;;;;;;;11.87;6.23;;;;;;;;;;777303;181;655433;-87
2022/08/23 00:12:51;;;;;;;15.83;5.57;;;;;;;;;;772550;180;659714;-86
2022/08/23 00:15:16;;;;;;;12.30;6.23;;;;;;;;;;765893;180;652590;-87
2022/08/23 00:17:42;;;;;;;11.23;5.70;;;;;;;;;;775705;180;629972;-86
2022/08/23 00:20:09;;;;;;;11.73;6.33;;;;;;;;;;781079;180;627205;-86
2022/08/23 00:22:34;;;;;;;8.30;5.00;;;;;;;;;;775899;180;633822;-87
2022/08/23 00:25:00;;;;;;;6.93;4.93;;;;;;;;;;777709;180;670605;-87
2022/08/23 00:27:26;;;;;;;8.83;5.10;;;;;;;;;;769267;180;633692;-86
2022/08/23 00:29:52;;;;;;;10.70;4.50;;;;;;;;;;777695;179;621552;-86
2022/08/23 00:32:18;;;;;;;11.43;4.93;;;;;;;;;;782585;179;674289;-86
2022/08/23 00:34:44;;;;;;;8.00;4.70;;;;;;;;;;786699;175;668607;-86
2022/08/23 00:37:10;;;;;;;9.33;4.87;;;;;;;;;;774174;179;632530;-86
2022/08/23 00:39:36;;;;;;;5.33;3.63;;;;;;;;;;794488;176;633386;-87
2022/08/23 00:47:38;;;;;;;5.57;3.50;;;;;;;;;;792579;176;682473;-86
2022/08/23 00:49:34;;;;;;;7.10;3.87;;;;;;;;;;782063;176;645851;-87
2022/08/23 00:52:00;;;;;;;8.30;4.50;;;;;;;;;;781334;179;617965;-86
2022/08/23 00:54:26;;;;;;;9.30;4.77;;;;;;;;;;782809;179;649653;-86
2022/08/23 00:56:52;;;;;;;6.30;4.13;;;;;;;;;;783954;177;787317;-86
2022/08/23 00:59:18;;;;;;;6.97;4.20;;;;;;;;;;789716;176;627068;-86
2022/08/23 01:01:44;;;;;;;9.23;4.93;;;;;;;;;;785584;176;633835;-86
2022/08/23 01:04:10;;;;;;;9.10;5.27;;;;;;;;;;787010;176;621459;-86
2022/08/23 01:06:38;;;;;;;13.90;4.87;;;;;;;;;;778293;180;618625;-86
2022/08/23 01:09:03;;;;;;;10.53;5.03;;;;;;;;;;775864;180;630675;-86
2022/08/23 01:11:32;;;;;;;7.43;4.90;;;;;;;;;;774256;180;626341;-86
2022/08/23 01:14:02;;;;;;;6.17;4.10;;;;;;;;;;763340;181;627666;-86
2022/08/23 01:16:32;;;;;;;10.13;5.03;;;;;;;;;;773622;180;627763;-86
2022/08/23 01:18:57;;;;;;;11.90;5.87;;;;;;;;;;771473;180;637715;-86
2022/08/23 01:21:24;;;;;;;9.97;5.43;;;;;;;;;;765812;180;634819;-86
2022/08/23 01:23:51;;;;;;;8.70;5.37;;;;;;;;;;765404;180;676330;-87
2022/08/23 01:26:17;;;;;;;10.23;5.87;;;;;;;;;;774589;179;643108;-86
2022/08/23 01:28:43;;;;;;;8.20;5.10;;;;;;;;;;772619;177;638492;-86
2022/08/23 01:31:08;;;;;;;10.40;5.60;;;;;;;;;;784263;177;648251;-86
2022/08/23 01:33:34;;;;;;;9.07;5.60;;;;;;;;;;778174;181;627240;-86
2022/08/23 01:36:00;;;;;;;9.73;5.40;;;;;;;;;;771950;180;628393;-86
2022/08/23 01:38:26;;;;;;;8.90;4.80;;;;;;;;;;790693;176;642458;-86
2022/08/23 01:40:52;;;;;;;8.87;5.40;;;;;;;;;;794479;175;627068;-86
2022/08/23 01:43:18;;;;;;;7.73;4.37;;;;;;;;;;767987;177;693449;-86
2022/08/23 01:45:44;;;;;;;10.00;5.70;;;;;;;;;;793928;175;681603;-86
2022/08/23 01:48:09;;;;;;;9.50;6.00;;;;;;;;;;790708;175;623924;-87
2022/08/23 01:50:35;;;;;;;7.80;5.10;;;;;;;;;;781852;178;647515;-87
2022/08/23 01:53:01;;;;;;;11.43;5.53;;;;;;;;;;773131;180;691968;-86
2022/08/23 01:55:27;;;;;;;10.70;5.80;;;;;;;;;;775770;179;639849;-86
2022/08/23 01:57:53;;;;;;;10.43;5.07;;;;;;;;;;781224;179;633425;-86
2022/08/23 02:00:19;;;;;;;9.77;4.60;;;;;;;;;;779346;180;671061;-86
2022/08/23 02:02:45;;;;;;;7.57;5.00;;;;;;;;;;769978;179;654420;-86
2022/08/23 02:05:10;;;;;;;10.73;5.27;;;;;;;;;;759739;184;629111;-86
2022/08/23 02:07:36;;;;;;;8.70;5.20;;;;;;;;;;750490;182;624151;-87
2022/08/23 02:21:32;;;;;;;8.77;4.80;;;;;;;;;;716678;178;627043;-86
2022/08/23 02:23:57;;;;;;;4.77;3.70;;;;;;;;;;765099;181;627918;-87
2022/08/23 02:26:23;;;;;;;6.17;4.30;;;;;;;;;;767330;179;649030;-85
2022/08/23 02:28:49;;;;;;;7.40;4.80;;;;;;;;;;757400;181;639960;-86
2022/08/23 02:31:15;;;;;;;5.50;4.60;;;;;;;;;;760335;183;652032;-86
2022/08/23 02:33:41;;;;;;;11.93;4.40;;;;;;;;;;764626;181;631979;-86
2022/08/23 02:36:07;;;;;;;8.10;4.90;;;;;;;;;;764137;179;630187;-88
2022/08/23 02:38:33;;;;;;;10.90;4.33;;;;;;;;;;765504;179;621140;-87
2022/08/23 02:41:00;;;;;;;10.73;4.33;;;;;;;;;;765475;180;631290;-87
2022/08/23 02:43:24;;;;;;;6.77;4.67;;;;;;;;;;768213;180;634295;-87
2022/08/23 02:45:50;;;;;;;5.90;4.30;;;;;;;;;;768462;180;637207;-86
2022/08/23 02:48:16;;;;;;;10.13;4.60;;;;;;;;;;773307;180;626921;-87
2022/08/23 02:50:42;;;;;;;7.03;4.77;;;;;;;;;;763982;182;642956;-87
2022/08/23 02:53:08;;;;;;;8.07;4.70;;;;;;;;;;762317;183;648099;-88
2022/08/23 02:55:34;;;;;;;7.70;5.00;;;;;;;;;;774285;182;627564;-87
2022/08/23 02:57:59;;;;;;;10.13;5.40;;;;;;;;;;766662;180;662923;-87
2022/08/23 03:00:25;;;;;;;8.37;5.17;;;;;;;;;;761324;181;675158;-87
2022/08/23 03:02:51;;;;;;;8.03;4.43;;;;;;;;;;764408;181;665101;-88
2022/08/23 03:05:17;;;;;;;9.40;6.23;;;;;;;;;;765738;180;631468;-87
2022/08/23 03:07:43;;;;;;;14.33;5.70;;;;;;;;;;762053;181;654680;-87
2022/08/23 03:10:09;;;;;;;7.70;4.60;;;;;;;;;;764495;184;643673;-87
2022/08/23 03:12:35;;;;;;;11.50;5.13;;;;;;;;;;765373;182;621282;-88
2022/08/23 03:15:00;;;;;;;8.37;5.57;;;;;;;;;;759425;181;633965;-88
2022/08/23 03:17:26;;;;;;;10.47;5.57;;;;;;;;;;763001;180;630860;-87
2022/08/23 03:19:52;;;;;;;11.10;6.50;;;;;;;;;;766082;182;667063;-88
2022/08/23 03:22:18;;;;;;;10.03;5.73;;;;;;;;;;760133;181;652441;-88
2022/08/23 03:24:44;;;;;;;12.43;6.87;;;;;;;;;;760904;180;696028;-87
2022/08/23 03:27:10;;;;;;;12.83;6.87;;;;;;;;;;764249;182;660783;-87
2022/08/23 03:29:36;;;;;;;9.93;6.20;;;;;;;;;;763254;181;639403;-89
2022/08/23 03:32:02;;;;;;;10.63;7.67;;;;;;;;;;761641;182;635346;-87
2022/08/23 03:34:28;;;;;;;16.20;8.50;;;;;;;;;;766041;181;673910;-88
2022/08/23 03:36:55;;;;;;;15.57;9.63;;;;;;;;;;761106;180;669071;-88
2022/08/23 03:39:19;;;;;;;13.77;8.97;;;;;;;;;;761810;181;634187;-87
2022/08/23 03:41:45;;;;;;;19.67;9.80;;;;;;;;;;758916;183;639028;-88
2022/08/23 03:44:11;;;;;;;16.23;10.83;;;;;;;;;;761216;181;645860;-88
2022/08/23 03:46:37;;;;;;;17.17;10.40;;;;;;;;;;760850;182;625935;-88
2022/08/23 03:49:03;;;;;;;21.17;12.50;;;;;;;;;;760804;181;687481;-88
2022/08/23 03:51:29;;;;;;;21.90;11.87;;;;;;;;;;764507;181;626412;-88
2022/08/23 03:53:54;;;;;;;25.67;13.00;;;;;;;;;;761243;181;674039;-87
2022/08/23 03:56:20;;;;;;;20.93;12.87;;;;;;;;;;759281;181;660379;-88
2022/08/23 03:58:46;;;;;;;21.30;13.37;;;;;;;;;;762710;182;636650;-88
2022/08/23 04:01:12;;;;;;;23.10;13.70;;;;;;;;;;761277;181;632684;-87
2022/08/23 04:03:38;;;;;;;28.83;14.70;;;;;;;;;;758875;182;621464;-87
2022/08/23 04:06:04;;;;;;;26.80;14.27;;;;;;;;;;763727;181;631251;-87
2022/08/23 04:08:30;;;;;;;23.07;14.50;;;;;;;;;;765650;182;642684;-87
2022/08/23 04:10:55;;;;;;;30.20;15.40;;;;;;;;;;763381;181;669479;-86
2022/08/23 04:13:23;;;;;;;37.03;16.77;;;;;;;;;;759515;181;693023;-87
2022/08/23 04:15:48;;;;;;;35.23;16.97;;;;;;;;;;765198;181;646203;-88
2022/08/23 04:18:14;;;;;;;36.50;15.13;;;;;;;;;;764877;181;695928;-88
2022/08/23 04:20:39;;;;;;;37.47;17.60;;;;;;;;;;764998;181;636113;-89
2022/08/23 04:23:05;;;;;;;39.37;17.10;;;;;;;;;;764180;182;629998;-88
2022/08/23 04:25:32;;;;;;;40.60;18.03;;;;;;;;;;761302;182;647664;-87
2022/08/23 04:27:56;;;;;;;44.47;18.67;;;;;;;;;;761059;181;671372;-88
2022/08/23 04:30:22;;;;;;;38.17;19.13;;;;;;;;;;760710;181;622126;-88
2022/08/23 04:32:48;;;;;;;49.90;19.90;;;;;;;;;;773142;179;633197;-86
2022/08/23 04:35:14;;;;;;;46.80;19.17;;;;;;;;;;759446;182;627650;-86
2022/08/23 04:37:40;;;;;;;42.20;19.80;;;;;;;;;;761924;181;669266;-88
2022/08/23 04:42:39;;;;;;;46.07;21.87;;;;;;;;;;759019;182;636626;-86
2022/08/23 04:45:04;;;;;;;60.20;23.97;;;;;;;;;;760722;182;642295;-87
2022/08/23 04:47:30;;;;;;;57.63;21.90;;;;;;;;;;761260;183;678445;-87
2022/08/23 04:49:56;;;;;;;60.77;25.77;;;;;;;;;;762296;180;651043;-86
2022/08/23 04:52:21;;;;;;;60.03;26.90;;;;;;;;;;759652;181;628863;-84
2022/08/23 04:54:47;;;;;;;62.10;26.10;;;;;;;;;;758409;181;668002;-87
2022/08/23 04:57:14;;;;;;;58.87;26.10;;;;;;;;;;766912;181;650300;-88
2022/08/23 04:59:40;;;;;;;69.37;25.70;;;;;;;;;;741028;183;3622774;-88
2022/08/23 05:16:14;;;;;;;68.53;28.17;;;;;;;;;;770857;175;621895;-76
2022/08/23 05:21:32;;;;;;;84.90;30.90;;;;;;;;;;716732;187;644334;-76
2022/08/23 05:27:11;;;;;;;75.77;31.03;;;;;;;;;;782915;178;663216;-75
2022/08/23 05:29:37;;;;;;;87.07;29.57;;;;;;;;;;779611;178;622793;-88
2022/08/23 05:32:03;;;;;;;91.63;32.17;;;;;;;;;;765627;181;631535;-90
2022/08/23 05:34:29;;;;;;;82.17;29.67;;;;;;;;;;759770;183;675195;-88
2022/08/23 05:36:55;;;;;;;80.20;27.97;;;;;;;;;;764050;183;675216;-91
2022/08/23 05:39:21;;;;;;;82.30;31.40;;;;;;;;;;752869;183;1363536;-88
2022/08/23 05:41:46;;;;;;;78.50;29.80;;;;;;;;;;742781;185;1515005;-90
2022/08/23 05:44:13;;;;;;;83.30;27.93;;;;;;;;;;757263;185;652227;-92
2022/08/23 05:46:38;;;;;;;79.90;27.10;;;;;;;;;;762001;183;635839;-90
2022/08/23 05:49:04;;;;;;;67.70;23.03;;;;;;;;;;759048;183;699417;-91
2022/08/23 05:51:30;;;;;;;57.90;23.73;;;;;;;;;;762017;183;626928;-90
2022/08/23 05:53:56;;;;;;;40.73;18.23;;;;;;;;;;757443;183;619882;-91
2022/08/23 05:56:22;;;;;;;48.07;19.57;;;;;;;;;;759679;183;654391;-92
2022/08/23 05:59:04;;;;;;;47.60;19.20;;;;;;;;;;779365;175;657487;31
2022/08/23 06:10:22;;;;;;;40.80;17.30;;;;;;;;;;785091;175;27518;31
2022/08/23 06:12:48;;;;;;;36.73;15.97;;;;;;;;;;763119;178;617204;-76
2022/08/23 06:15:30;;;;;;;37.13;16.40;;;;;;;;;;781754;175;27908;-76
2022/08/23 06:26:33;;;;;;;32.47;14.97;;;;;;;;;;763424;178;651667;-93
2022/08/23 06:28:59;;;;;;;26.77;12.70;;;;;;;;;;751940;184;675851;-92
2022/08/23 06:33:56;;;;;;;26.90;14.53;;;;;;;;;;722910;193;641765;-89
2022/08/23 06:36:22;;;;;;;26.20;12.27;;;;;;;;;;732879;193;625486;-93
2022/08/23 06:38:49;;;;;;;24.27;13.97;;;;;;;;;;723935;193;649788;-90
2022/08/23 06:41:14;;;;;;;29.70;12.93;;;;;;;;;;725561;193;634458;-91
2022/08/23 06:43:39;;;;;;;26.63;12.27;;;;;;;;;;731842;190;627527;-91
2022/08/23 06:46:08;;;;;;;20.90;10.23;;;;;;;;;;743384;187;623646;-89
2022/08/23 06:48:34;;;;;;;16.83;9.70;;;;;;;;;;737800;185;635416;-91
2022/08/23 06:51:00;;;;;;;17.83;10.10;;;;;;;;;;741840;188;649781;-89
2022/08/23 06:53:26;;;;;;;13.33;9.60;;;;;;;;;;740555;187;653768;-88
2022/08/23 06:55:52;;;;;;;14.23;9.53;;;;;;;;;;735952;186;637091;-89
2022/08/23 06:58:18;;;;;;;15.70;10.23;;;;;;;;;;741018;185;748482;-88
2022/08/23 07:00:43;;;;;;;18.10;9.60;;;;;;;;;;723750;193;618886;-90
2022/08/23 07:03:09;;;;;;;15.30;11.80;;;;;;;;;;718465;192;641627;-91
2022/08/23 07:05:35;;;;;;;17.23;11.27;;;;;;;;;;730617;190;632411;-91
2022/08/23 07:08:01;;;;;;;13.23;9.20;;;;;;;;;;738047;186;663028;-88
2022/08/23 07:10:27;;;;;;;15.83;10.57;;;;;;;;;;729663;188;619443;-89
2022/08/23 07:12:53;;;;;;;16.20;9.73;;;;;;;;;;737559;188;656783;-90
2022/08/23 07:15:19;;;;;;;21.90;10.00;;;;;;;;;;727256;189;722043;-87
2022/08/23 07:17:44;;;;;;;16.27;9.67;;;;;;;;;;747715;183;678185;-91
2022/08/23 07:20:10;;;;;;;12.93;9.10;;;;;;;;;;743430;186;686395;-88
2022/08/23 07:22:36;;;;;;;12.13;8.90;;;;;;;;;;740870;186;631283;-89
2022/08/23 07:25:02;;;;;;;12.23;9.37;;;;;;;;;;739445;190;624076;-89
2022/08/23 07:27:28;;;;;;;14.77;10.70;;;;;;;;;;723239;193;621601;-88
2022/08/23 07:29:54;;;;;;;14.87;9.37;;;;;;;;;;739508;189;622247;-89
2022/08/23 07:32:20;;;;;;;15.43;10.43;;;;;;;;;;729240;189;620924;-87
2022/08/23 07:34:45;;;;;;;13.90;9.00;;;;;;;;;;724207;193;667430;-87
2022/08/23 07:37:12;;;;;;;13.13;8.77;;;;;;;;;;726761;192;692421;-87
2022/08/23 07:39:37;;;;;;;17.23;10.13;;;;;;;;;;728895;193;666032;-87
2022/08/23 07:42:03;;;;;;;17.80;10.07;;;;;;;;;;724572;191;622916;-88
2022/08/23 07:44:29;;;;;;;13.27;10.63;;;;;;;;;;726855;193;652865;-86
2022/08/23 07:46:55;;;;;;;19.30;10.87;;;;;;;;;;723226;193;653312;-88
2022/08/23 07:49:21;;;;;;;17.30;11.90;;;;;;;;;;728876;193;645503;-86
2022/08/23 07:51:47;;;;;;;15.70;11.77;;;;;;;;;;734784;187;614032;-88
2022/08/23 07:54:13;;;;;;;16.77;10.47;;;;;;;;;;741624;186;617831;-85
2022/08/23 07:56:39;;;;;;;15.00;10.30;;;;;;;;;;742577;189;685388;-87
2022/08/23 07:59:04;;;;;;;12.97;9.30;;;;;;;;;;735360;189;636489;-87
2022/08/23 08:01:30;;;;;;;16.23;10.57;;;;;;;;;;725487;193;622383;-88
2022/08/23 08:03:56;;;;;;;14.53;9.17;;;;;;;;;;730979;193;624659;-87
2022/08/23 08:06:22;;;;;;;16.20;9.70;;;;;;;;;;736139;187;629723;-86
2022/08/23 08:08:48;;;;;;;16.43;9.27;;;;;;;;;;739370;187;658744;-85
2022/08/23 08:11:15;;;;;;;16.93;9.60;;;;;;;;;;739858;187;634353;-85
2022/08/23 08:13:40;;;;;;;16.43;10.10;;;;;;;;;;743591;189;624277;-85
2022/08/23 08:16:07;;;;;;;23.30;10.90;;;;;;;;;;732084;188;624017;-85
2022/08/23 08:18:31;;;;;;;14.83;8.83;;;;;;;;;;726678;190;630872;-85
2022/08/23 08:20:57;;;;;;;15.83;9.17;;;;;;;;;;740313;186;647855;-87
2022/08/23 08:23:23;;;;;;;12.40;9.53;;;;;;;;;;728895;193;627559;-86
2022/08/23 08:25:49;;;;;;;13.27;8.27;;;;;;;;;;732602;189;635123;-86
2022/08/23 08:28:15;;;;;;;13.77;9.20;;;;;;;;;;738124;188;654277;-84
2022/08/23 08:30:41;;;;;;;12.30;8.77;;;;;;;;;;729972;189;635824;-85
2022/08/23 08:33:07;;;;;;;10.43;8.03;;;;;;;;;;730876;189;613866;-85
2022/08/23 08:35:32;;;;;;;13.20;9.10;;;;;;;;;;727027;193;631826;-84
2022/08/23 08:37:58;;;;;;;12.63;9.17;;;;;;;;;;727101;193;641805;-87
2022/08/23 08:40:24;;;;;;;12.83;9.20;;;;;;;;;;738039;187;639527;-85
2022/08/23 08:42:53;;;;;;;14.30;9.90;;;;;;;;;;731936;188;639320;-85
2022/08/23 08:45:22;;;;;;;12.80;9.57;;;;;;;;;;725844;193;646306;-87
2022/08/23 08:47:48;;;;;;;15.77;9.57;;;;;;;;;;742474;186;655247;-85
2022/08/23 08:50:17;;;;;;;14.13;12.17;;;;;;;;;;744187;186;705674;-84
2022/08/23 08:52:43;;;;;;;14.67;8.97;;;;;;;;;;728096;192;648718;-87
2022/08/23 08:55:10;;;;;;;13.43;10.80;;;;;;;;;;727436;193;632373;-85
2022/08/23 08:57:35;;;;;;;12.37;10.53;;;;;;;;;;719943;193;651240;-85
2022/08/23 09:00:02;;;;;;;13.37;9.03;;;;;;;;;;727200;193;637729;-84
2022/08/23 09:02:28;;;;;;;12.27;9.30;;;;;;;;;;724957;193;756488;-85
2022/08/23 09:04:54;;;;;;;14.63;9.13;;;;;;;;;;723112;193;658527;-83
2022/08/23 09:07:23;;;;;;;16.80;9.27;;;;;;;;;;721144;193;678716;-86
2022/08/23 09:09:56;;;;;;;12.20;9.40;;;;;;;;;;727849;193;643997;-85
2022/08/23 09:12:32;;;;;;;10.67;8.30;;;;;;;;;;739060;187;845776;-87
2022/08/23 09:14:58;;;;;;;12.97;8.50;;;;;;;;;;743926;187;666432;-85
2022/08/23 09:17:25;;;;;;;12.87;8.03;;;;;;;;;;732757;188;629330;-85
2022/08/23 09:19:50;;;;;;;11.13;8.37;;;;;;;;;;740262;188;680005;-88
2022/08/23 09:22:16;;;;;;;13.03;9.30;;;;;;;;;;730490;193;631307;-85
2022/08/23 09:24:42;;;;;;;12.90;8.67;;;;;;;;;;726158;193;627015;-84
2022/08/23 09:27:08;;;;;;;14.27;8.40;;;;;;;;;;720631;194;627381;-85
2022/08/23 09:29:34;;;;;;;11.03;8.17;;;;;;;;;;742280;189;623386;-86
2022/08/23 09:32:02;;;;;;;13.30;9.20;;;;;;;;;;727586;188;624568;-86
2022/08/23 09:34:44;;;;;;;10.97;8.20;;;;;;;;;;721967;193;633705;-86
2022/08/23 09:37:13;;;;;;;11.20;8.43;;;;;;;;;;724934;191;633003;-85
2022/08/23 09:39:40;;;;;;;12.70;9.20;;;;;;;;;;725313;193;672210;-83
2022/08/23 09:42:07;;;;;;;11.60;7.70;;;;;;;;;;729920;191;619513;-87
2022/08/23 09:44:38;;;;;;;12.53;7.90;;;;;;;;;;732155;188;644193;-84
2022/08/23 09:47:03;;;;;;;11.87;8.30;;;;;;;;;;737570;187;660094;-85
2022/08/23 09:49:29;;;;;;;14.10;9.37;;;;;;;;;;727097;193;701008;-86
2022/08/23 09:51:55;;;;;;;14.10;7.33;;;;;;;;;;728967;193;622229;-85
2022/08/23 09:54:21;;;;;;;13.10;9.13;;;;;;;;;;724910;193;658449;-88
2022/08/23 09:56:52;;;;;;;14.83;9.50;;;;;;;;;;729087;189;622810;-84
2022/08/23 09:59:24;;;;;;;12.63;9.40;;;;;;;;;;741563;188;617214;-84
2022/08/23 10:01:50;;;;;;;13.77;9.60;;;;;;;;;;734961;190;624019;-85
2022/08/23 10:04:16;;;;;;;12.17;8.33;;;;;;;;;;728855;193;687708;-85
2022/08/23 10:06:44;;;;;;;14.47;9.90;;;;;;;;;;725566;193;638207;-84
2022/08/23 10:09:08;;;;;;;12.00;9.63;;;;;;;;;;731274;186;646139;-85
2022/08/23 10:11:37;;;;;;;11.20;8.60;;;;;;;;;;739718;186;628320;-85
2022/08/23 10:14:02;;;;;;;26.80;9.67;;;;;;;;;;725768;192;752731;-85
2022/08/23 10:16:30;;;;;;;14.60;9.33;;;;;;;;;;726388;191;629369;-85
2022/08/23 10:18:59;;;;;;;15.77;10.83;;;;;;;;;;743526;187;623354;-84
2022/08/23 10:21:30;;;;;;;11.23;9.47;;;;;;;;;;741226;187;645573;-85
2022/08/23 10:24:12;;;;;;;18.20;10.37;;;;;;;;;;740523;188;671194;-84
2022/08/23 10:26:37;;;;;;;14.33;10.23;;;;;;;;;;731734;189;657917;-85
2022/08/23 10:31:50;;;;;;;13.73;9.80;;;;;;;;;;732473;189;736471;-85
2022/08/23 10:34:16;;;;;;;12.37;8.80;;;;;;;;;;734242;190;634245;-85
2022/08/23 10:36:59;;;;;;;13.20;8.30;;;;;;;;;;724096;191;897175;-85
2022/08/23 10:39:26;;;;;;;11.10;8.37;;;;;;;;;;726428;193;634169;-87
2022/08/23 10:41:55;;;;;;;12.67;9.27;;;;;;;;;;724042;176;635615;-57
2022/08/23 10:44:21;;;;;;;14.90;9.53;;;;;;;;;;779185;179;630684;-56
2022/08/23 10:46:48;;;;;;;13.43;10.27;;;;;;;;;;774739;178;634925;-56
2022/08/23 10:49:13;;;;;;;11.90;9.23;;;;;;;;;;775238;180;634106;-58
2022/08/23 10:51:39;;;;;;;13.40;9.70;;;;;;;;;;773727;179;628060;-58
2022/08/23 10:54:07;;;;;;;12.57;9.83;;;;;;;;;;767903;181;617603;-57
2022/08/23 10:56:33;;;;;;;16.00;10.00;;;;;;;;;;774351;180;637176;-56
2022/08/23 10:59:13;;;;;;;13.73;10.40;;;;;;;;;;777949;180;621435;-56
2022/08/23 11:01:40;;;;;;;15.70;9.97;;;;;;;;;;775025;178;632134;-57
2022/08/23 11:04:06;;;;;;;13.20;10.03;;;;;;;;;;777552;178;631391;-56
2022/08/23 11:06:44;;;;;;;11.60;8.77;;;;;;;;;;776987;179;627598;-56
2022/08/23 11:09:29;;;;;;;12.00;9.40;;;;;;;;;;777216;179;624899;-57
2022/08/23 11:12:00;;;;;;;12.30;8.67;;;;;;;;;;778626;178;641368;-58
2022/08/23 11:14:27;;;;;;;12.50;9.43;;;;;;;;;;776583;179;618907;-57
2022/08/23 11:16:54;;;;;;;13.93;9.73;;;;;;;;;;775461;180;633793;-56
2022/08/23 11:19:20;;;;;;;11.70;9.60;;;;;;;;;;779984;177;630332;-57
2022/08/23 11:21:46;;;;;;;10.27;8.20;;;;;;;;;;775807;180;629002;-57
2022/08/23 11:24:27;;;;;;;15.87;8.93;;;;;;;;;;777367;177;616946;-57
2022/08/23 11:27:01;;;;;;;11.47;8.90;;;;;;;;;;777491;178;632859;-57
2022/08/23 11:29:26;;;;;;;10.30;8.80;;;;;;;;;;771778;179;613601;-56
2022/08/23 11:32:01;;;;;;;12.60;10.03;;;;;;;;;;786779;173;819194;-55
2022/08/23 11:34:27;;;;;;;11.30;9.30;;;;;;;;;;776477;177;917968;-54
2022/08/23 11:36:59;;;;;;;11.30;9.40;;;;;;;;;;777758;180;913622;-56
2022/08/23 11:39:25;;;;;;;10.90;9.73;;;;;;;;;;761257;183;920159;-56
2022/08/23 11:42:01;;;;;;;12.30;9.40;;;;;;;;;;771220;179;902488;-55
2022/08/23 11:44:46;;;;;;;11.87;9.23;;;;;;;;;;771293;179;918295;-57
2022/08/23 11:47:13;;;;;;;11.73;9.63;;;;;;;;;;777183;179;922007;-57
2022/08/23 11:49:52;;;;;;;14.80;10.70;;;;;;;;;;779878;179;918280;-56
2022/08/23 11:52:33;;;;;;;11.33;8.43;;;;;;;;;;774407;177;919046;-56
2022/08/23 11:55:00;;;;;;;10.70;9.13;;;;;;;;;;778735;179;910218;-57
2022/08/23 11:57:28;;;;;;;11.50;8.70;;;;;;;;;;777931;180;1021425;-56
2022/08/23 12:00:10;;;;;;;11.17;8.70;;;;;;;;;;779007;180;920308;-56
2022/08/23 12:02:40;;;;;;;14.27;10.20;;;;;;;;;;779877;180;920797;-56
2022/08/23 12:05:12;;;;;;;16.13;9.17;;;;;;;;;;772765;178;891716;-56
2022/08/23 12:07:52;;;;;;;10.47;9.13;;;;;;;;;;771017;179;914135;-56
2022/08/23 12:10:24;;;;;;;11.20;9.40;;;;;;;;;;775635;180;935016;-56
2022/08/23 12:12:53;;;;;;;11.60;10.17;;;;;;;;;;775264;177;817795;-56
2022/08/23 12:15:19;;;;;;;15.30;11.47;;;;;;;;;;780634;180;906927;-56
2022/08/23 12:18:00;;;;;;;16.40;12.17;;;;;;;;;;777926;180;818810;-56
2022/08/23 12:20:26;;;;;;;14.13;10.10;;;;;;;;;;778605;179;863204;-55
2022/08/23 12:22:51;;;;;;;10.93;9.03;;;;;;;;;;776629;180;917218;-56
2022/08/23 12:25:17;;;;;;;10.83;9.40;;;;;;;;;;780903;180;919774;-56
2022/08/23 12:27:44;;;;;;;12.87;9.90;;;;;;;;;;776636;179;874969;-56
2022/08/23 12:30:16;;;;;;;13.90;10.77;;;;;;;;;;776260;180;916080;-56
2022/08/23 12:32:44;;;;;;;11.40;10.20;;;;;;;;;;774288;180;923351;-57
2022/08/23 12:35:09;;;;;;;11.13;10.03;;;;;;;;;;772230;179;919752;-56
2022/08/23 12:37:36;;;;;;;12.27;10.03;;;;;;;;;;768386;181;918745;-56
2022/08/23 12:40:02;;;;;;;13.40;9.43;;;;;;;;;;774119;180;920431;-56
2022/08/23 12:42:28;;;;;;;12.80;9.80;;;;;;;;;;783117;178;919541;-57
2022/08/23 12:44:57;;;;;;;11.60;9.10;;;;;;;;;;778367;177;920030;-57
2022/08/23 12:47:23;;;;;;;11.30;9.53;;;;;;;;;;773064;179;1022141;-58
2022/08/23 12:49:54;;;;;;;12.93;9.83;;;;;;;;;;778597;180;919485;-58
2022/08/23 12:52:20;;;;;;;11.70;10.53;;;;;;;;;;782967;179;919340;-57
2022/08/23 12:54:46;;;;;;;11.10;9.70;;;;;;;;;;774700;181;921465;-57
2022/08/23 12:57:14;;;;;;;12.67;9.80;;;;;;;;;;777417;179;921226;-57
2022/08/23 12:59:39;;;;;;;11.33;8.77;;;;;;;;;;772001;180;921292;-58
2022/08/23 13:02:07;;;;;;;10.67;9.17;;;;;;;;;;777718;179;818594;-57
2022/08/23 13:04:32;;;;;;;9.70;8.43;;;;;;;;;;767303;181;818953;-57
2022/08/23 13:06:58;;;;;;;12.43;10.13;;;;;;;;;;773487;180;920013;-57
2022/08/23 13:09:33;;;;;;;12.03;10.53;;;;;;;;;;778820;180;838894;-57
2022/08/23 13:11:59;;;;;;;12.13;10.93;;;;;;;;;;783246;179;919707;-57
2022/08/23 13:14:26;;;;;;;15.60;11.90;;;;;;;;;;777578;177;918974;-57
2022/08/23 13:16:52;;;;;;;12.33;11.03;;;;;;;;;;775693;178;919301;-57
2022/08/23 13:19:17;;;;;;;12.17;9.83;;;;;;;;;;783118;179;817096;-58
2022/08/23 13:21:43;;;;;;;13.83;11.03;;;;;;;;;;775894;180;817564;-57
2022/08/23 13:24:28;;;;;;;19.85;11.57;;;;;;;;;;777316;177;919311;-58
2022/08/23 13:26:54;;;;;;;13.93;10.50;;;;;;;;;;776055;179;918508;-58
2022/08/23 13:29:20;;;;;;;15.67;14.07;;;;;;;;;;780791;180;774302;-57
2022/08/23 13:31:48;;;;;;;14.10;12.33;;;;;;;;;;775922;177;919944;-58
2022/08/23 13:34:20;;;;;;;13.83;11.33;;;;;;;;;;773447;180;920996;-57
2022/08/23 13:36:47;;;;;;;16.63;13.10;;;;;;;;;;775311;178;920428;-58
2022/08/23 13:39:12;;;;;;;14.30;11.63;;;;;;;;;;781259;179;920256;-57
2022/08/23 13:41:38;;;;;;;16.30;11.87;;;;;;;;;;760803;179;918117;-57
2022/08/23 13:44:04;;;;;;;13.43;11.90;;;;;;;;;;772355;180;919317;-57
2022/08/23 13:46:29;;;;;;;16.83;12.20;;;;;;;;;;777082;180;828198;-58
2022/08/23 13:48:57;;;;;;;16.40;10.43;;;;;;;;;;774356;178;918921;-57
2022/08/23 13:51:26;;;;;;;13.70;11.13;;;;;;;;;;775337;178;919736;-57
2022/08/23 13:53:52;;;;;;;12.70;10.60;;;;;;;;;;776569;177;859236;-57
2022/08/23 13:56:17;;;;;;;14.37;11.27;;;;;;;;;;781300;180;918836;-57
2022/08/23 13:58:43;;;;;;;15.40;10.93;;;;;;;;;;777882;179;845700;-57
2022/08/23 14:01:09;;;;;;;13.33;9.83;;;;;;;;;;774165;179;919533;-58
2022/08/23 14:03:35;;;;;;;13.80;9.47;;;;;;;;;;769935;180;815438;-57
2022/08/23 14:06:01;;;;;;;16.67;12.20;;;;;;;;;;775149;177;919110;-57
2022/08/23 14:08:27;;;;;;;15.47;9.83;;;;;;;;;;777610;177;919749;-57
2022/08/23 14:10:53;;;;;;;13.97;9.20;;;;;;;;;;767805;177;817314;-57
2022/08/23 14:13:18;;;;;;;13.83;10.50;;;;;;;;;;776142;180;754491;-58
2022/08/23 14:15:44;;;;;;;13.00;9.10;;;;;;;;;;776941;178;918383;-58
2022/08/23 14:18:10;;;;;;;13.00;9.57;;;;;;;;;;762206;183;919230;-57
2022/08/23 14:20:36;;;;;;;17.50;11.50;;;;;;;;;;776988;180;920696;-57
2022/08/23 14:23:02;;;;;;;12.20;9.53;;;;;;;;;;776187;180;919018;-58
2022/08/23 14:25:28;;;;;;;12.27;9.57;;;;;;;;;;776731;179;922141;-58
2022/08/23 14:27:53;;;;;;;13.23;10.10;;;;;;;;;;785355;178;805097;-57
2022/08/23 14:30:35;;;;;;;12.50;9.00;;;;;;;;;;775466;178;926753;-57
2022/08/23 14:33:01;;;;;;;13.17;8.80;;;;;;;;;;779764;179;626830;-58
2022/08/23 14:35:27;;;;;;;10.07;7.70;;;;;;;;;;780772;179;626848;-57
2022/08/23 14:37:53;;;;;;;13.48;8.30;;;;;;;;;;782425;179;626947;-58
2022/08/23 14:40:19;;;;;;;10.30;7.70;;;;;;;;;;768730;180;817269;-58
2022/08/23 14:42:45;;;;;;;10.20;7.77;;;;;;;;;;766533;181;917905;-57
2022/08/23 14:45:10;;;;;;;8.90;7.13;;;;;;;;;;778122;178;818499;-58
2022/08/23 14:47:36;;;;;;;10.77;7.23;;;;;;;;;;782258;180;816859;-58
2022/08/23 14:50:02;;;;;;;11.63;8.60;;;;;;;;;;774756;180;919271;-58
2022/08/23 14:52:28;;;;;;;9.75;7.70;;;;;;;;;;776880;180;919311;-57
2022/08/23 14:54:54;;;;;;;10.90;7.83;;;;;;;;;;781709;180;818887;-58
2022/08/23 14:57:20;;;;;;;9.17;7.33;;;;;;;;;;776120;179;919283;-58
2022/08/23 14:59:45;;;;;;;10.30;8.10;;;;;;;;;;776178;180;919980;-57
2022/08/23 15:02:11;;;;;;;12.77;7.07;;;;;;;;;;780215;179;931755;-58
2022/08/23 15:04:37;;;;;;;13.97;8.90;;;;;;;;;;778166;179;919958;-57
2022/08/23 15:07:03;;;;;;;9.27;7.13;;;;;;;;;;777419;179;930618;-57
2022/08/23 15:09:29;;;;;;;10.87;8.53;;;;;;;;;;778575;180;919468;-57
2022/08/23 15:11:55;;;;;;;11.47;8.60;;;;;;;;;;779669;177;919654;-58
2022/08/23 15:14:21;;;;;;;12.90;9.20;;;;;;;;;;778487;177;919541;-57